sensor_id;sensor_type;location;lat;lon;timestamp;pressure;altitude;pressure_sealevel;temperature;humidity
12799;BME280;19250;42.646;26.980;2022-12-18T00:02:22;99632.47;;;14.63;100.00
12799;BME280;19250;42.646;26.980;2022-12-18T00:04:49;99636.31;;;14.60;100.00
12799;BME280;19250;42.646;26.980;2022-12-18T00:07:16;99635.16;;;14.55;100.00
12799;BME280;19250;42.646;26.980;2022-12-18T00:09:43;99635.81;;;14.57;100.00
12799;BME280;19250;42.646;26.980;2022-12-18T00:12:11;99639.00;;;14.44;100.00
12799;BME280;19250;42.646;26.980;2022-12-18T00:14:38;99644.38;;;14.44;100.00
12799;BME280;19250;42.646;26.980;2022-12-18T00:17:05;99639.78;;;14.29;100.00
12799;BME280;19250;42.646;26.980;2022-12-18T00:19:34;99650.53;;;14.12;100.00
12799;BME280;19250;42.646;26.980;2022-12-18T00:22:01;99652.56;;;14.18;100.00
12799;BME280;19250;42.646;26.980;2022-12-18T00:24:28;99665.09;;;14.10;100.00
12799;BME280;19250;42.646;26.980;2022-12-18T00:26:55;99649.88;;;14.18;100.00
12799;BME280;19250;42.646;26.980;2022-12-18T00:29:23;99646.56;;;14.49;100.00
12799;BME280;19250;42.646;26.980;2022-12-18T00:31:50;99653.94;;;14.79;100.00
12799;BME280;19250;42.646;26.980;2022-12-18T00:34:17;99658.13;;;14.74;100.00
12799;BME280;19250;42.646;26.980;2022-12-18T00:36:47;99673.38;;;14.57;100.00
12799;BME280;19250;42.646;26.980;2022-12-18T00:39:14;99670.28;;;14.19;100.00
12799;BME280;19250;42.646;26.980;2022-12-18T00:41:42;99670.91;;;13.89;100.00
12799;BME280;19250;42.646;26.980;2022-12-18T00:44:27;99665.25;;;14.16;100.00
12799;BME280;19250;42.646;26.980;2022-12-18T00:46:54;99677.31;;;14.04;100.00
12799;BME280;19250;42.646;26.980;2022-12-18T00:49:21;99681.88;;;14.12;100.00
12799;BME280;19250;42.646;26.980;2022-12-18T00:51:50;99688.81;;;13.81;100.00
12799;BME280;19250;42.646;26.980;2022-12-18T00:54:17;99685.91;;;14.24;100.00
12799;BME280;19250;42.646;26.980;2022-12-18T00:56:44;99675.38;;;14.47;100.00
12799;BME280;19250;42.646;26.980;2022-12-18T00:59:12;99684.81;;;14.43;100.00
12799;BME280;19250;42.646;26.980;2022-12-18T01:01:39;99672.06;;;14.37;100.00
12799;BME280;19250;42.646;26.980;2022-12-18T01:04:07;99681.41;;;14.41;100.00
12799;BME280;19250;42.646;26.980;2022-12-18T01:06:34;99670.38;;;14.76;100.00
12799;BME280;19250;42.646;26.980;2022-12-18T01:09:03;99687.97;;;14.87;100.00
12799;BME280;19250;42.646;26.980;2022-12-18T01:11:30;99687.63;;;15.06;100.00
12799;BME280;19250;42.646;26.980;2022-12-18T01:14:00;99698.69;;;15.11;100.00
12799;BME280;19250;42.646;26.980;2022-12-18T01:16:27;99698.56;;;15.04;100.00
12799;BME280;19250;42.646;26.980;2022-12-18T01:18:55;99700.56;;;15.10;100.00
12799;BME280;19250;42.646;26.980;2022-12-18T01:21:23;99706.28;;;14.91;100.00
12799;BME280;19250;42.646;26.980;2022-12-18T01:23:54;99719.72;;;14.67;100.00
12799;BME280;19250;42.646;26.980;2022-12-18T01:26:24;99717.03;;;14.91;100.00
12799;BME280;19250;42.646;26.980;2022-12-18T01:28:54;99723.91;;;14.69;100.00
12799;BME280;19250;42.646;26.980;2022-12-18T01:31:23;99732.78;;;14.94;100.00
12799;BME280;19250;42.646;26.980;2022-12-18T01:33:51;99740.44;;;14.33;100.00
12799;BME280;19250;42.646;26.980;2022-12-18T01:36:20;99750.03;;;14.01;100.00
12799;BME280;19250;42.646;26.980;2022-12-18T01:38:48;99754.75;;;14.65;100.00
12799;BME280;19250;42.646;26.980;2022-12-18T01:41:19;99754.41;;;14.60;100.00
12799;BME280;19250;42.646;26.980;2022-12-18T01:43:52;99757.28;;;14.67;100.00
12799;BME280;19250;42.646;26.980;2022-12-18T01:46:21;99748.91;;;14.78;100.00
12799;BME280;19250;42.646;26.980;2022-12-18T01:48:53;99765.66;;;14.80;100.00
12799;BME280;19250;42.646;26.980;2022-12-18T01:51:22;99768.00;;;14.51;100.00
12799;BME280;19250;42.646;26.980;2022-12-18T01:53:50;99771.00;;;14.40;100.00
12799;BME280;19250;42.646;26.980;2022-12-18T01:56:21;99768.31;;;14.56;100.00
12799;BME280;19250;42.646;26.980;2022-12-18T01:58:58;99758.94;;;14.60;100.00
12799;BME280;19250;42.646;26.980;2022-12-18T02:01:28;99746.25;;;14.28;100.00
12799;BME280;19250;42.646;26.980;2022-12-18T02:03:56;99744.75;;;14.17;100.00
12799;BME280;19250;42.646;26.980;2022-12-18T02:06:41;99748.22;;;14.10;100.00
12799;BME280;19250;42.646;26.980;2022-12-18T02:09:12;99754.81;;;14.32;100.00
12799;BME280;19250;42.646;26.980;2022-12-18T02:11:49;99763.22;;;13.53;100.00
12799;BME280;19250;42.646;26.980;2022-12-18T02:14:28;99745.72;;;13.41;100.00
12799;BME280;19250;42.646;26.980;2022-12-18T02:17:02;99692.66;;;13.11;100.00
12799;BME280;19250;42.646;26.980;2022-12-18T02:19:44;99731.09;;;13.61;100.00
12799;BME280;19250;42.646;26.980;2022-12-18T02:22:26;99714.06;;;13.70;100.00
12799;BME280;19250;42.646;26.980;2022-12-18T02:25:03;99707.47;;;13.56;100.00
12799;BME280;19250;42.646;26.980;2022-12-18T02:27:37;99703.41;;;13.44;100.00
12799;BME280;19250;42.646;26.980;2022-12-18T02:30:06;99693.38;;;13.03;100.00
12799;BME280;19250;42.646;26.980;2022-12-18T02:32:37;99697.41;;;13.25;100.00
12799;BME280;19250;42.646;26.980;2022-12-18T02:35:09;99691.84;;;13.18;100.00
12799;BME280;19250;42.646;26.980;2022-12-18T02:37:40;99697.19;;;13.44;100.00
12799;BME280;19250;42.646;26.980;2022-12-18T02:40:11;99701.91;;;13.24;100.00
12799;BME280;19250;42.646;26.980;2022-12-18T02:42:40;99699.19;;;13.42;100.00
12799;BME280;19250;42.646;26.980;2022-12-18T02:45:08;99713.03;;;13.63;100.00
12799;BME280;19250;42.646;26.980;2022-12-18T02:47:38;99712.72;;;13.74;100.00
12799;BME280;19250;42.646;26.980;2022-12-18T02:50:11;99702.25;;;13.55;100.00
12799;BME280;19250;42.646;26.980;2022-12-18T02:52:47;99710.81;;;13.58;100.00
12799;BME280;19250;42.646;26.980;2022-12-18T02:55:28;99698.88;;;13.45;100.00
12799;BME280;19250;42.646;26.980;2022-12-18T02:58:04;99700.50;;;13.38;100.00
12799;BME280;19250;42.646;26.980;2022-12-18T03:00:36;99709.94;;;13.50;100.00
12799;BME280;19250;42.646;26.980;2022-12-18T03:03:07;99699.78;;;13.28;100.00
12799;BME280;19250;42.646;26.980;2022-12-18T03:05:40;99706.75;;;13.46;100.00
12799;BME280;19250;42.646;26.980;2022-12-18T03:08:13;99706.66;;;13.64;100.00
12799;BME280;19250;42.646;26.980;2022-12-18T03:10:45;99722.59;;;13.66;100.00
12799;BME280;19250;42.646;26.980;2022-12-18T03:13:21;99721.66;;;13.49;100.00
12799;BME280;19250;42.646;26.980;2022-12-18T03:15:53;99712.13;;;13.21;100.00
12799;BME280;19250;42.646;26.980;2022-12-18T03:18:25;99722.22;;;13.27;100.00
12799;BME280;19250;42.646;26.980;2022-12-18T03:20:58;99720.38;;;12.66;100.00
12799;BME280;19250;42.646;26.980;2022-12-18T03:23:30;99730.69;;;12.61;100.00
12799;BME280;19250;42.646;26.980;2022-12-18T03:26:01;99724.59;;;12.69;100.00
12799;BME280;19250;42.646;26.980;2022-12-18T03:28:33;99729.34;;;13.00;100.00
12799;BME280;19250;42.646;26.980;2022-12-18T03:31:05;99741.22;;;13.41;100.00
12799;BME280;19250;42.646;26.980;2022-12-18T03:33:39;99746.31;;;13.27;100.00
12799;BME280;19250;42.646;26.980;2022-12-18T03:36:09;99750.44;;;13.21;100.00
12799;BME280;19250;42.646;26.980;2022-12-18T03:38:36;99754.13;;;13.20;100.00
12799;BME280;19250;42.646;26.980;2022-12-18T03:41:09;99747.22;;;13.35;100.00
12799;BME280;19250;42.646;26.980;2022-12-18T03:43:45;99759.56;;;13.54;100.00
12799;BME280;19250;42.646;26.980;2022-12-18T03:46:19;99766.09;;;13.08;100.00
12799;BME280;19250;42.646;26.980;2022-12-18T03:48:58;99771.06;;;12.85;100.00
12799;BME280;19250;42.646;26.980;2022-12-18T03:51:31;99775.16;;;12.97;100.00
12799;BME280;19250;42.646;26.980;2022-12-18T03:54:03;99775.88;;;12.99;100.00
12799;BME280;19250;42.646;26.980;2022-12-18T03:56:35;99773.50;;;12.96;100.00
12799;BME280;19250;42.646;26.980;2022-12-18T03:59:06;99767.00;;;12.99;100.00
12799;BME280;19250;42.646;26.980;2022-12-18T04:01:37;99738.94;;;12.85;100.00
12799;BME280;19250;42.646;26.980;2022-12-18T04:04:06;99774.34;;;13.15;100.00
12799;BME280;19250;42.646;26.980;2022-12-18T04:06:35;99775.47;;;13.30;100.00
12799;BME280;19250;42.646;26.980;2022-12-18T04:09:04;99783.13;;;13.25;100.00
12799;BME280;19250;42.646;26.980;2022-12-18T04:11:31;99784.41;;;13.38;100.00
12799;BME280;19250;42.646;26.980;2022-12-18T04:13:59;99798.25;;;13.34;100.00
12799;BME280;19250;42.646;26.980;2022-12-18T04:16:28;99803.91;;;13.48;100.00
12799;BME280;19250;42.646;26.980;2022-12-18T04:18:55;99821.06;;;13.38;100.00
12799;BME280;19250;42.646;26.980;2022-12-18T04:21:22;99826.81;;;13.07;100.00
12799;BME280;19250;42.646;26.980;2022-12-18T04:23:49;99807.16;;;13.42;100.00
12799;BME280;19250;42.646;26.980;2022-12-18T04:26:17;99832.22;;;13.51;100.00
12799;BME280;19250;42.646;26.980;2022-12-18T04:28:44;99824.16;;;13.51;100.00
12799;BME280;19250;42.646;26.980;2022-12-18T04:31:11;99796.19;;;13.45;100.00
12799;BME280;19250;42.646;26.980;2022-12-18T04:33:40;99824.84;;;13.79;100.00
12799;BME280;19250;42.646;26.980;2022-12-18T04:36:07;99822.53;;;13.84;100.00
12799;BME280;19250;42.646;26.980;2022-12-18T04:38:34;99839.22;;;14.03;100.00
12799;BME280;19250;42.646;26.980;2022-12-18T04:41:02;99824.44;;;13.66;100.00
12799;BME280;19250;42.646;26.980;2022-12-18T04:43:29;99836.72;;;13.76;100.00
12799;BME280;19250;42.646;26.980;2022-12-18T04:46:02;99845.25;;;13.72;100.00
12799;BME280;19250;42.646;26.980;2022-12-18T04:48:29;99846.16;;;13.88;100.00
12799;BME280;19250;42.646;26.980;2022-12-18T04:50:58;99852.97;;;14.00;100.00
12799;BME280;19250;42.646;26.980;2022-12-18T04:53:25;99859.47;;;13.72;100.00
12799;BME280;19250;42.646;26.980;2022-12-18T04:56:03;99825.91;;;13.60;100.00
12799;BME280;19250;42.646;26.980;2022-12-18T04:58:30;99860.69;;;13.78;100.00
12799;BME280;19250;42.646;26.980;2022-12-18T05:00:58;99865.69;;;13.73;100.00
12799;BME280;19250;42.646;26.980;2022-12-18T05:03:25;99872.72;;;13.74;100.00
12799;BME280;19250;42.646;26.980;2022-12-18T05:05:52;99877.69;;;13.43;100.00
12799;BME280;19250;42.646;26.980;2022-12-18T05:08:21;99877.03;;;13.67;100.00
12799;BME280;19250;42.646;26.980;2022-12-18T05:10:48;99888.75;;;13.66;100.00
12799;BME280;19250;42.646;26.980;2022-12-18T05:13:15;99883.03;;;13.60;100.00
12799;BME280;19250;42.646;26.980;2022-12-18T05:15:51;99884.38;;;13.39;100.00
12799;BME280;19250;42.646;26.980;2022-12-18T05:18:18;99887.00;;;13.03;100.00
12799;BME280;19250;42.646;26.980;2022-12-18T05:20:46;99895.81;;;12.96;100.00
12799;BME280;19250;42.646;26.980;2022-12-18T05:23:13;99896.53;;;12.71;100.00
12799;BME280;19250;42.646;26.980;2022-12-18T05:25:42;99905.00;;;12.93;100.00
12799;BME280;19250;42.646;26.980;2022-12-18T05:28:09;99906.41;;;12.88;100.00
12799;BME280;19250;42.646;26.980;2022-12-18T05:30:36;99913.59;;;12.87;100.00
12799;BME280;19250;42.646;26.980;2022-12-18T05:33:03;99920.19;;;13.20;100.00
12799;BME280;19250;42.646;26.980;2022-12-18T05:35:30;99924.50;;;13.03;100.00
12799;BME280;19250;42.646;26.980;2022-12-18T05:37:58;99929.84;;;13.03;100.00
12799;BME280;19250;42.646;26.980;2022-12-18T05:40:25;99928.06;;;12.94;100.00
12799;BME280;19250;42.646;26.980;2022-12-18T05:42:53;99935.41;;;13.20;100.00
12799;BME280;19250;42.646;26.980;2022-12-18T05:45:21;99940.09;;;13.35;100.00
12799;BME280;19250;42.646;26.980;2022-12-18T05:47:48;99936.78;;;13.24;100.00
12799;BME280;19250;42.646;26.980;2022-12-18T05:50:15;99945.19;;;13.29;100.00
12799;BME280;19250;42.646;26.980;2022-12-18T05:52:43;99953.16;;;13.21;100.00
12799;BME280;19250;42.646;26.980;2022-12-18T05:55:10;99952.56;;;12.99;100.00
12799;BME280;19250;42.646;26.980;2022-12-18T05:57:37;99964.56;;;12.95;100.00
12799;BME280;19250;42.646;26.980;2022-12-18T06:00:07;99964.31;;;12.89;100.00
12799;BME280;19250;42.646;26.980;2022-12-18T06:02:35;99977.03;;;12.87;100.00
12799;BME280;19250;42.646;26.980;2022-12-18T06:05:02;99980.81;;;12.84;100.00
12799;BME280;19250;42.646;26.980;2022-12-18T06:07:29;99983.16;;;12.70;100.00
12799;BME280;19250;42.646;26.980;2022-12-18T06:09:57;99987.97;;;12.93;100.00
12799;BME280;19250;42.646;26.980;2022-12-18T06:12:24;99996.31;;;13.18;100.00
12799;BME280;19250;42.646;26.980;2022-12-18T06:14:51;99994.50;;;12.81;100.00
12799;BME280;19250;42.646;26.980;2022-12-18T06:17:20;99998.72;;;12.84;100.00
12799;BME280;19250;42.646;26.980;2022-12-18T06:19:47;99996.44;;;12.89;100.00
12799;BME280;19250;42.646;26.980;2022-12-18T06:22:14;100004.31;;;12.90;100.00
12799;BME280;19250;42.646;26.980;2022-12-18T06:24:42;100009.78;;;12.71;100.00
12799;BME280;19250;42.646;26.980;2022-12-18T06:27:10;100026.91;;;12.78;100.00
12799;BME280;19250;42.646;26.980;2022-12-18T06:29:37;100030.69;;;12.85;100.00
12799;BME280;19250;42.646;26.980;2022-12-18T06:32:04;100035.50;;;12.82;100.00
12799;BME280;19250;42.646;26.980;2022-12-18T06:34:34;100049.44;;;12.85;100.00
12799;BME280;19250;42.646;26.980;2022-12-18T06:37:01;100057.66;;;13.11;100.00
12799;BME280;19250;42.646;26.980;2022-12-18T06:39:29;100060.91;;;13.15;100.00
12799;BME280;19250;42.646;26.980;2022-12-18T06:41:56;100060.66;;;13.08;100.00
12799;BME280;19250;42.646;26.980;2022-12-18T06:44:23;100072.28;;;12.80;100.00
12799;BME280;19250;42.646;26.980;2022-12-18T06:46:50;100074.50;;;12.84;100.00
12799;BME280;19250;42.646;26.980;2022-12-18T06:49:17;100084.50;;;12.26;100.00
12799;BME280;19250;42.646;26.980;2022-12-18T06:51:47;100086.06;;;12.85;100.00
12799;BME280;19250;42.646;26.980;2022-12-18T06:54:14;100086.44;;;12.53;100.00
12799;BME280;19250;42.646;26.980;2022-12-18T06:56:41;100092.81;;;12.89;100.00
12799;BME280;19250;42.646;26.980;2022-12-18T06:59:08;100107.44;;;12.94;100.00
12799;BME280;19250;42.646;26.980;2022-12-18T07:01:36;100101.28;;;12.84;100.00
12799;BME280;19250;42.646;26.980;2022-12-18T07:04:03;100119.81;;;13.15;100.00
12799;BME280;19250;42.646;26.980;2022-12-18T07:06:30;100118.06;;;13.23;100.00
12799;BME280;19250;42.646;26.980;2022-12-18T07:08:59;100128.00;;;13.40;100.00
12799;BME280;19250;42.646;26.980;2022-12-18T07:11:26;100137.50;;;13.25;100.00
12799;BME280;19250;42.646;26.980;2022-12-18T07:13:53;100136.88;;;13.14;100.00
12799;BME280;19250;42.646;26.980;2022-12-18T07:16:21;100141.44;;;13.31;100.00
12799;BME280;19250;42.646;26.980;2022-12-18T07:18:48;100139.25;;;13.17;100.00
12799;BME280;19250;42.646;26.980;2022-12-18T07:21:16;100138.09;;;13.19;100.00
12799;BME280;19250;42.646;26.980;2022-12-18T07:23:45;100143.16;;;12.66;100.00
12799;BME280;19250;42.646;26.980;2022-12-18T07:26:16;100152.31;;;12.54;100.00
12799;BME280;19250;42.646;26.980;2022-12-18T07:28:44;100150.38;;;12.46;100.00
12799;BME280;19250;42.646;26.980;2022-12-18T07:31:13;100152.03;;;12.57;100.00
12799;BME280;19250;42.646;26.980;2022-12-18T07:33:41;100159.31;;;12.93;100.00
12799;BME280;19250;42.646;26.980;2022-12-18T07:36:09;100156.22;;;12.88;100.00
12799;BME280;19250;42.646;26.980;2022-12-18T07:38:37;100153.75;;;12.58;100.00
12799;BME280;19250;42.646;26.980;2022-12-18T07:41:05;100163.75;;;12.37;100.00
12799;BME280;19250;42.646;26.980;2022-12-18T07:43:35;100166.59;;;12.26;100.00
12799;BME280;19250;42.646;26.980;2022-12-18T07:46:02;100178.84;;;12.47;100.00
12799;BME280;19250;42.646;26.980;2022-12-18T07:48:30;100185.84;;;12.10;100.00
12799;BME280;19250;42.646;26.980;2022-12-18T07:50:58;100189.09;;;12.52;100.00
12799;BME280;19250;42.646;26.980;2022-12-18T07:53:26;100185.03;;;12.29;100.00
12799;BME280;19250;42.646;26.980;2022-12-18T07:55:55;100166.72;;;12.15;100.00
12799;BME280;19250;42.646;26.980;2022-12-18T07:58:23;100196.94;;;12.06;100.00
12799;BME280;19250;42.646;26.980;2022-12-18T08:00:52;100195.84;;;11.98;100.00
12799;BME280;19250;42.646;26.980;2022-12-18T08:03:19;100132.91;;;11.75;100.00
12799;BME280;19250;42.646;26.980;2022-12-18T08:05:47;100204.44;;;12.31;100.00
12799;BME280;19250;42.646;26.980;2022-12-18T08:08:14;100199.94;;;12.31;100.00
12799;BME280;19250;42.646;26.980;2022-12-18T08:10:41;100199.66;;;12.44;100.00
12799;BME280;19250;42.646;26.980;2022-12-18T08:13:09;100161.94;;;12.37;100.00
12799;BME280;19250;42.646;26.980;2022-12-18T08:15:36;100129.97;;;12.36;100.00
12799;BME280;19250;42.646;26.980;2022-12-18T08:18:04;100204.69;;;12.76;100.00
12799;BME280;19250;42.646;26.980;2022-12-18T08:20:32;100209.34;;;12.45;100.00
12799;BME280;19250;42.646;26.980;2022-12-18T08:22:59;100205.16;;;12.62;100.00
12799;BME280;19250;42.646;26.980;2022-12-18T08:25:26;100210.94;;;12.47;100.00
12799;BME280;19250;42.646;26.980;2022-12-18T08:27:53;100201.72;;;12.79;100.00
12799;BME280;19250;42.646;26.980;2022-12-18T08:30:22;100205.72;;;12.55;100.00
12799;BME280;19250;42.646;26.980;2022-12-18T08:32:51;100210.75;;;12.30;100.00
12799;BME280;19250;42.646;26.980;2022-12-18T08:35:19;100213.41;;;12.01;100.00
12799;BME280;19250;42.646;26.980;2022-12-18T08:37:47;100156.25;;;11.73;100.00
12799;BME280;19250;42.646;26.980;2022-12-18T08:40:14;100215.41;;;12.28;100.00
12799;BME280;19250;42.646;26.980;2022-12-18T08:42:41;100214.00;;;12.05;100.00
12799;BME280;19250;42.646;26.980;2022-12-18T08:45:26;100218.16;;;11.88;100.00
12799;BME280;19250;42.646;26.980;2022-12-18T08:47:53;100219.06;;;12.08;100.00
12799;BME280;19250;42.646;26.980;2022-12-18T08:50:22;100214.28;;;12.40;100.00
12799;BME280;19250;42.646;26.980;2022-12-18T08:52:49;100222.19;;;12.51;100.00
12799;BME280;19250;42.646;26.980;2022-12-18T08:55:16;100216.28;;;12.28;100.00
12799;BME280;19250;42.646;26.980;2022-12-18T08:57:47;100225.25;;;12.75;100.00
12799;BME280;19250;42.646;26.980;2022-12-18T09:00:15;100194.44;;;12.71;100.00
12799;BME280;19250;42.646;26.980;2022-12-18T09:02:43;100140.91;;;12.71;100.00
12799;BME280;19250;42.646;26.980;2022-12-18T09:05:10;100224.13;;;13.53;100.00
12799;BME280;19250;42.646;26.980;2022-12-18T09:07:39;100234.44;;;13.48;100.00
12799;BME280;19250;42.646;26.980;2022-12-18T09:10:06;100224.41;;;13.50;100.00
12799;BME280;19250;42.646;26.980;2022-12-18T09:12:34;100233.31;;;13.41;100.00
12799;BME280;19250;42.646;26.980;2022-12-18T09:15:01;100148.91;;;12.81;100.00
12799;BME280;19250;42.646;26.980;2022-12-18T09:17:28;100229.44;;;13.06;100.00
12799;BME280;19250;42.646;26.980;2022-12-18T09:19:56;100237.19;;;13.29;100.00
12799;BME280;19250;42.646;26.980;2022-12-18T09:22:23;100237.19;;;13.19;100.00
12799;BME280;19250;42.646;26.980;2022-12-18T09:24:51;100246.22;;;13.18;100.00
12799;BME280;19250;42.646;26.980;2022-12-18T09:27:19;100246.25;;;12.80;100.00
12799;BME280;19250;42.646;26.980;2022-12-18T09:29:46;100250.47;;;12.82;100.00
12799;BME280;19250;42.646;26.980;2022-12-18T09:32:13;100248.53;;;12.65;100.00
12799;BME280;19250;42.646;26.980;2022-12-18T09:34:41;100248.09;;;12.60;100.00
12799;BME280;19250;42.646;26.980;2022-12-18T09:37:08;100245.00;;;12.45;100.00
12799;BME280;19250;42.646;26.980;2022-12-18T09:39:35;100242.69;;;12.12;100.00
12799;BME280;19250;42.646;26.980;2022-12-18T09:42:04;100231.75;;;12.25;100.00
12799;BME280;19250;42.646;26.980;2022-12-18T09:44:36;100238.50;;;12.29;100.00
12799;BME280;19250;42.646;26.980;2022-12-18T09:47:10;100236.66;;;12.39;100.00
12799;BME280;19250;42.646;26.980;2022-12-18T09:49:42;100233.88;;;12.40;100.00
12799;BME280;19250;42.646;26.980;2022-12-18T09:52:14;100162.47;;;11.93;100.00
12799;BME280;19250;42.646;26.980;2022-12-18T09:54:45;100241.59;;;12.34;100.00
12799;BME280;19250;42.646;26.980;2022-12-18T09:57:18;100130.59;;;11.52;100.00
12799;BME280;19250;42.646;26.980;2022-12-18T09:59:50;100237.59;;;11.99;100.00
12799;BME280;19250;42.646;26.980;2022-12-18T10:02:22;100235.59;;;11.82;100.00
12799;BME280;19250;42.646;26.980;2022-12-18T10:04:59;100230.69;;;11.57;100.00
12799;BME280;19250;42.646;26.980;2022-12-18T10:07:34;100183.81;;;11.34;100.00
12799;BME280;19250;42.646;26.980;2022-12-18T10:10:07;100235.03;;;11.79;100.00
12799;BME280;19250;42.646;26.980;2022-12-18T10:12:42;100214.25;;;11.22;100.00
12799;BME280;19250;42.646;26.980;2022-12-18T10:15:18;100225.94;;;11.30;100.00
12799;BME280;19250;42.646;26.980;2022-12-18T10:17:52;100229.25;;;11.43;100.00
12799;BME280;19250;42.646;26.980;2022-12-18T10:20:31;100224.59;;;11.76;100.00
12799;BME280;19250;42.646;26.980;2022-12-18T10:23:04;100196.97;;;11.66;100.00
12799;BME280;19250;42.646;26.980;2022-12-18T10:25:40;100154.31;;;11.45;100.00
12799;BME280;19250;42.646;26.980;2022-12-18T10:28:16;100238.25;;;11.73;100.00
12799;BME280;19250;42.646;26.980;2022-12-18T10:30:44;100247.44;;;11.89;100.00
12799;BME280;19250;42.646;26.980;2022-12-18T10:33:12;100257.31;;;11.98;100.00
12799;BME280;19250;42.646;26.980;2022-12-18T10:35:41;100252.41;;;12.04;100.00
12799;BME280;19250;42.646;26.980;2022-12-18T10:38:22;100254.25;;;12.22;100.00
12799;BME280;19250;42.646;26.980;2022-12-18T10:40:52;100243.78;;;11.90;100.00
12799;BME280;19250;42.646;26.980;2022-12-18T10:43:23;100262.47;;;11.60;100.00
12799;BME280;19250;42.646;26.980;2022-12-18T10:46:08;100243.78;;;11.60;100.00
12799;BME280;19250;42.646;26.980;2022-12-18T10:48:48;100256.03;;;12.02;100.00
12799;BME280;19250;42.646;26.980;2022-12-18T10:51:21;100261.34;;;11.93;100.00
12799;BME280;19250;42.646;26.980;2022-12-18T10:53:56;100270.16;;;11.74;100.00
12799;BME280;19250;42.646;26.980;2022-12-18T10:56:25;100285.31;;;12.04;100.00
12799;BME280;19250;42.646;26.980;2022-12-18T10:59:00;100265.53;;;12.35;100.00
12799;BME280;19250;42.646;26.980;2022-12-18T11:01:45;100267.28;;;11.96;100.00
12799;BME280;19250;42.646;26.980;2022-12-18T11:04:17;100273.34;;;11.98;100.00
12799;BME280;19250;42.646;26.980;2022-12-18T11:06:54;100282.94;;;12.01;100.00
12799;BME280;19250;42.646;26.980;2022-12-18T11:09:23;100271.03;;;11.84;100.00
12799;BME280;19250;42.646;26.980;2022-12-18T11:11:51;100280.13;;;11.72;100.00
12799;BME280;19250;42.646;26.980;2022-12-18T11:14:23;100292.84;;;11.59;100.00
12799;BME280;19250;42.646;26.980;2022-12-18T11:16:52;100283.81;;;11.51;100.00
12799;BME280;19250;42.646;26.980;2022-12-18T11:19:30;100292.16;;;10.95;100.00
12799;BME280;19250;42.646;26.980;2022-12-18T11:21:59;100291.66;;;11.01;100.00
12799;BME280;19250;42.646;26.980;2022-12-18T11:24:30;100297.38;;;10.97;100.00
12799;BME280;19250;42.646;26.980;2022-12-18T11:26:59;100274.91;;;10.58;100.00
12799;BME280;19250;42.646;26.980;2022-12-18T11:29:33;100304.56;;;10.64;100.00
12799;BME280;19250;42.646;26.980;2022-12-18T11:32:24;100296.09;;;10.91;100.00
12799;BME280;19250;42.646;26.980;2022-12-18T11:34:58;100300.06;;;10.97;100.00
12799;BME280;19250;42.646;26.980;2022-12-18T11:37:27;100289.81;;;11.22;100.00
12799;BME280;19250;42.646;26.980;2022-12-18T11:39:57;100278.44;;;11.00;100.00
12799;BME280;19250;42.646;26.980;2022-12-18T11:42:34;100305.56;;;10.84;100.00
12799;BME280;19250;42.646;26.980;2022-12-18T11:45:24;100304.34;;;11.09;100.00
12799;BME280;19250;42.646;26.980;2022-12-18T11:47:57;100310.97;;;10.73;100.00
12799;BME280;19250;42.646;26.980;2022-12-18T11:50:29;100276.69;;;10.25;100.00
12799;BME280;19250;42.646;26.980;2022-12-18T11:52:58;100304.78;;;10.29;100.00
12799;BME280;19250;42.646;26.980;2022-12-18T11:55:32;100304.44;;;10.01;100.00
12799;BME280;19250;42.646;26.980;2022-12-18T11:58:07;100312.06;;;10.05;100.00
12799;BME280;19250;42.646;26.980;2022-12-18T12:00:48;100321.19;;;10.14;100.00
12799;BME280;19250;42.646;26.980;2022-12-18T12:03:27;100330.84;;;10.04;100.00
12799;BME280;19250;42.646;26.980;2022-12-18T12:06:08;100328.75;;;10.41;100.00
12799;BME280;19250;42.646;26.980;2022-12-18T12:08:46;100317.16;;;9.86;100.00
12799;BME280;19250;42.646;26.980;2022-12-18T12:11:23;100329.16;;;10.03;100.00
12799;BME280;19250;42.646;26.980;2022-12-18T12:14:04;100330.38;;;9.65;100.00
12799;BME280;19250;42.646;26.980;2022-12-18T12:16:43;100333.50;;;9.02;100.00
12799;BME280;19250;42.646;26.980;2022-12-18T12:19:29;100280.09;;;8.70;100.00
12799;BME280;19250;42.646;26.980;2022-12-18T12:22:09;100334.28;;;8.81;100.00
12799;BME280;19250;42.646;26.980;2022-12-18T12:24:47;100341.81;;;8.87;100.00
12799;BME280;19250;42.646;26.980;2022-12-18T12:27:20;100350.09;;;9.06;100.00
12799;BME280;19250;42.646;26.980;2022-12-18T12:30:00;100344.19;;;8.79;100.00
12799;BME280;19250;42.646;26.980;2022-12-18T12:32:42;100347.06;;;8.75;100.00
12799;BME280;19250;42.646;26.980;2022-12-18T12:35:24;100347.94;;;8.52;100.00
12799;BME280;19250;42.646;26.980;2022-12-18T12:38:02;100343.00;;;8.83;100.00
12799;BME280;19250;42.646;26.980;2022-12-18T12:40:35;100348.94;;;8.86;100.00
12799;BME280;19250;42.646;26.980;2022-12-18T12:43:10;100369.16;;;9.00;100.00
12799;BME280;19250;42.646;26.980;2022-12-18T12:45:44;100375.75;;;9.07;100.00
12799;BME280;19250;42.646;26.980;2022-12-18T12:48:21;100376.63;;;9.18;100.00
12799;BME280;19250;42.646;26.980;2022-12-18T12:50:52;100370.72;;;9.26;100.00
12799;BME280;19250;42.646;26.980;2022-12-18T12:53:25;100364.03;;;9.20;100.00